createdAt,value
2018-02-27T00:02:13.450Z,6.25
2018-02-27T00:04:41.819Z,6.75
2018-02-27T00:07:10.161Z,6.95
2018-02-27T00:09:38.488Z,7.18
2018-02-27T00:12:07.417Z,7.00
2018-02-27T00:14:35.824Z,7.20
2018-02-27T00:17:04.129Z,8.30
2018-02-27T00:19:32.531Z,8.15
2018-02-27T00:22:00.905Z,8.55
2018-02-27T00:24:29.248Z,7.12
2018-02-27T00:26:57.601Z,7.35
2018-02-27T00:29:26.094Z,7.62
2018-02-27T00:31:54.453Z,7.55
2018-02-27T00:34:23.502Z,7.97
2018-02-27T00:36:51.817Z,6.57
2018-02-27T00:39:20.230Z,7.10
2018-02-27T00:41:48.572Z,6.90
2018-02-27T00:44:16.916Z,7.62
2018-02-27T00:46:45.305Z,6.65
2018-02-27T00:49:13.671Z,6.40
2018-02-27T00:51:42.014Z,7.72
2018-02-27T00:54:10.569Z,7.50
2018-02-27T00:56:39.200Z,8.23
2018-02-27T00:59:07.622Z,8.18
2018-02-27T01:01:36.038Z,7.20
2018-02-27T01:04:04.391Z,7.20
2018-02-27T01:06:32.767Z,8.20
2018-02-27T01:09:01.144Z,7.90
2018-02-27T01:11:29.550Z,7.60
2018-02-27T01:13:57.890Z,7.62
2018-02-27T01:16:26.234Z,6.25
2018-02-27T01:18:54.749Z,7.22
2018-02-27T01:21:23.126Z,6.45
2018-02-27T01:23:51.463Z,7.25
2018-02-27T01:26:19.818Z,8.00
2018-02-27T01:28:48.122Z,7.97
2018-02-27T01:31:16.471Z,7.47
2018-02-27T01:33:45.600Z,7.62
2018-02-27T01:36:13.949Z,7.45
2018-02-27T01:38:42.297Z,7.95
2018-02-27T01:41:11.111Z,7.62
2018-02-27T01:43:40.216Z,7.20
2018-02-27T01:46:08.538Z,7.55
2018-02-27T01:48:36.902Z,7.80
2018-02-27T01:51:14.973Z,6.97
2018-02-27T01:53:44.108Z,6.85
2018-02-27T01:56:12.445Z,7.50
2018-02-27T01:58:41.551Z,7.57
2018-02-27T02:01:10.231Z,7.78
2018-02-27T02:03:39.322Z,8.80
2018-02-27T02:06:07.629Z,7.57
2018-02-27T02:08:35.960Z,8.75
2018-02-27T02:11:04.304Z,7.97
2018-02-27T02:13:32.636Z,7.37
2018-02-27T02:16:01.764Z,7.93
2018-02-27T02:18:30.552Z,8.30
2018-02-27T02:20:58.902Z,7.47
2018-02-27T02:23:28.083Z,8.10
2018-02-27T02:25:56.398Z,7.47
2018-02-27T02:28:24.727Z,8.32
2018-02-27T02:30:53.061Z,7.50
2018-02-27T02:33:21.464Z,7.53
2018-02-27T02:35:49.785Z,7.45
2018-02-27T02:38:18.946Z,8.25
2018-02-27T02:40:47.284Z,8.23
2018-02-27T02:43:15.593Z,8.15
2018-02-27T02:45:44.283Z,7.80
2018-02-27T02:48:12.608Z,8.13
2018-02-27T02:50:41.683Z,7.62
2018-02-27T02:53:10.009Z,7.43
2018-02-27T02:55:38.313Z,7.53
2018-02-27T02:58:06.621Z,7.70
2018-02-27T03:00:35.706Z,7.30
2018-02-27T03:03:04.012Z,7.20
2018-02-27T03:05:32.346Z,7.82
2018-02-27T03:08:01.071Z,7.65
2018-02-27T03:10:30.139Z,7.95
2018-02-27T03:12:58.486Z,8.00
2018-02-27T03:15:26.807Z,7.45
2018-02-27T03:17:55.170Z,8.43
2018-02-27T03:20:23.480Z,9.10
2018-02-27T03:22:52.590Z,8.50
2018-02-27T03:25:21.260Z,8.77
2018-02-27T03:27:50.382Z,8.57
2018-02-27T03:30:19.021Z,8.35
2018-02-27T03:32:48.116Z,8.02
2018-02-27T03:35:16.409Z,8.98
2018-02-27T03:37:46.008Z,8.32
2018-02-27T03:40:14.540Z,8.00
2018-02-27T03:42:42.868Z,9.07
2018-02-27T03:45:11.242Z,9.90
2018-02-27T03:47:39.570Z,9.07
2018-02-27T03:50:07.889Z,9.50
2018-02-27T03:52:36.380Z,9.02
2018-02-27T03:55:04.681Z,9.48
2018-02-27T03:57:33.775Z,9.13
2018-02-27T04:00:03.002Z,9.80
2018-02-27T04:02:31.307Z,9.45
2018-02-27T04:04:59.601Z,9.57
2018-02-27T04:07:27.930Z,9.73
2018-02-27T04:09:56.245Z,10.13
2018-02-27T04:12:24.547Z,10.70
2018-02-27T04:14:53.098Z,9.07
2018-02-27T04:17:21.431Z,9.55
2018-02-27T04:19:50.780Z,9.48
2018-02-27T04:22:19.141Z,8.43
2018-02-27T04:24:47.459Z,9.15
2018-02-27T04:27:15.832Z,8.75
2018-02-27T04:29:44.288Z,9.27
2018-02-27T04:32:12.701Z,8.90
2018-02-27T04:34:41.189Z,9.48
2018-02-27T04:37:10.690Z,9.00
2018-02-27T04:39:39.168Z,9.43
2018-02-27T04:42:07.557Z,9.75
2018-02-27T04:44:35.931Z,10.25
2018-02-27T04:47:04.311Z,8.65
2018-02-27T04:49:32.689Z,8.80
2018-02-27T04:52:01.122Z,8.63
2018-02-27T04:54:29.518Z,8.57
2018-02-27T04:56:58.025Z,9.18
2018-02-27T04:59:26.818Z,7.37
2018-02-27T05:01:55.193Z,8.60
2018-02-27T05:04:23.581Z,8.10
2018-02-27T05:06:51.992Z,9.05
2018-02-27T05:09:21.199Z,8.52
2018-02-27T05:11:49.601Z,8.10
2018-02-27T05:14:17.980Z,7.90
2018-02-27T05:16:46.395Z,8.07
2018-02-27T05:19:14.716Z,8.82
2018-02-27T05:21:44.859Z,9.75
2018-02-27T05:24:13.288Z,8.88
2018-02-27T05:26:41.652Z,9.35
2018-02-27T05:29:10.140Z,8.50
2018-02-27T05:31:38.625Z,8.20
2018-02-27T05:34:06.931Z,8.50
2018-02-27T05:36:35.481Z,9.13
2018-02-27T05:39:03.962Z,9.27
2018-02-27T05:41:32.338Z,8.55
2018-02-27T05:44:01.157Z,8.55
2018-02-27T05:46:30.320Z,9.43
2018-02-27T05:48:58.754Z,8.85
2018-02-27T05:51:27.194Z,7.60
2018-02-27T05:53:55.584Z,7.93
2018-02-27T05:56:24.052Z,8.77
2018-02-27T05:58:52.601Z,7.87
2018-02-27T06:01:20.985Z,7.65
2018-02-27T06:03:49.394Z,8.43
2018-02-27T06:06:18.132Z,7.72
2018-02-27T06:08:46.496Z,7.15
2018-02-27T06:11:15.658Z,7.85
2018-02-27T06:13:44.935Z,8.35
2018-02-27T06:16:13.449Z,9.55
2018-02-27T06:18:41.899Z,9.00
2018-02-27T06:21:10.404Z,10.00
2018-02-27T06:23:38.991Z,8.80
2018-02-27T06:26:07.306Z,8.88
2018-02-27T06:28:35.807Z,8.63
2018-02-27T06:31:04.201Z,9.38
2018-02-27T06:33:32.546Z,9.45
2018-02-27T06:36:00.898Z,8.80
2018-02-27T06:38:29.232Z,8.93
2018-02-27T06:40:57.537Z,8.20
2018-02-27T06:43:25.880Z,9.15
2018-02-27T06:45:54.191Z,8.88
2018-02-27T06:48:22.520Z,9.20
2018-02-27T06:50:52.108Z,6.90
2018-02-27T06:53:20.415Z,6.70
2018-02-27T06:55:48.729Z,6.55
2018-02-27T06:58:17.061Z,6.32
2018-02-27T07:00:45.374Z,5.70
2018-02-27T07:03:13.688Z,5.60
2018-02-27T07:05:42.007Z,5.30
2018-02-27T07:08:10.313Z,6.35
2018-02-27T07:10:38.626Z,5.65
2018-02-27T07:13:08.037Z,5.18
2018-02-27T07:15:37.129Z,5.25
2018-02-27T07:18:05.447Z,4.90
2018-02-27T07:20:33.819Z,5.35
2018-02-27T07:23:02.123Z,4.40
2018-02-27T07:25:30.466Z,4.85
2018-02-27T07:27:58.823Z,5.75
2018-02-27T07:30:27.912Z,4.85
2018-02-27T07:32:57.007Z,5.15
2018-02-27T07:35:26.270Z,5.70
2018-02-27T07:37:54.627Z,4.93
2018-02-27T07:40:22.956Z,5.80
2018-02-27T07:42:51.318Z,6.53
2018-02-27T07:45:19.628Z,6.00
2018-02-27T07:47:47.960Z,5.75
2018-02-27T07:50:16.317Z,7.30
2018-02-27T07:52:44.643Z,5.33
2018-02-27T07:55:12.936Z,6.40
2018-02-27T07:57:42.212Z,6.07
2018-02-27T08:00:10.519Z,6.40
2018-02-27T08:02:39.601Z,5.63
2018-02-27T08:05:07.974Z,5.33
2018-02-27T08:07:36.299Z,4.77
2018-02-27T08:10:04.650Z,4.37
2018-02-27T08:12:32.985Z,4.53
2018-02-27T08:15:01.312Z,4.73
2018-02-27T08:17:29.613Z,3.92
2018-02-27T08:19:59.279Z,4.55
2018-02-27T08:22:27.588Z,4.25
2018-02-27T08:24:55.917Z,4.28
2018-02-27T08:27:24.279Z,3.58
2018-02-27T08:29:52.600Z,3.90
2018-02-27T08:32:20.951Z,4.32
2018-02-27T08:34:49.315Z,4.17
2018-02-27T08:37:17.629Z,4.00
2018-02-27T08:39:45.945Z,4.17
2018-02-27T08:42:14.379Z,3.97
2018-02-27T08:44:42.699Z,3.83
2018-02-27T08:47:11.052Z,3.70
2018-02-27T08:49:40.164Z,2.70
2018-02-27T08:52:09.256Z,4.17
2018-02-27T08:54:38.361Z,4.57
2018-02-27T08:57:07.480Z,2.77
2018-02-27T08:59:35.800Z,2.63
2018-02-27T09:02:04.121Z,3.03
2018-02-27T09:04:32.758Z,2.83
2018-02-27T09:07:01.077Z,3.10
2018-02-27T09:09:29.436Z,2.97
2018-02-27T09:11:58.537Z,3.10
2018-02-27T09:14:27.637Z,3.10
2018-02-27T09:16:56.706Z,3.60
2018-02-27T09:19:25.046Z,2.53
2018-02-27T09:21:53.364Z,2.90
2018-02-27T09:24:21.727Z,3.20
2018-02-27T09:26:50.549Z,3.40
2018-02-27T09:29:19.637Z,3.10
2018-02-27T09:31:47.955Z,2.72
2018-02-27T09:34:16.318Z,3.37
2018-02-27T09:36:45.388Z,2.95
2018-02-27T09:39:13.683Z,3.20
2018-02-27T09:41:42.792Z,3.30
2018-02-27T09:44:11.126Z,2.90
2018-02-27T09:46:39.461Z,2.42
2018-02-27T09:49:08.135Z,2.45
2018-02-27T09:51:36.416Z,2.40
2018-02-27T09:54:05.631Z,3.08
2018-02-27T09:56:33.978Z,2.62
2018-02-27T09:59:02.279Z,2.75
2018-02-27T10:01:30.576Z,2.63
2018-02-27T10:03:58.936Z,3.00
2018-02-27T10:06:27.230Z,2.90
2018-02-27T10:08:55.573Z,4.77
2018-02-27T10:11:24.878Z,3.10
2018-02-27T10:13:53.184Z,2.77
2018-02-27T10:16:21.530Z,3.07
2018-02-27T10:18:50.613Z,3.33
2018-02-27T10:21:19.678Z,2.90
2018-02-27T10:23:48.565Z,3.00
2018-02-27T10:26:16.904Z,3.10
2018-02-27T10:28:45.233Z,2.70
2018-02-27T10:31:13.546Z,2.87
2018-02-27T10:33:43.237Z,2.50
2018-02-27T10:36:11.575Z,3.43
2018-02-27T10:38:39.887Z,3.20
2018-02-27T10:41:08.223Z,3.13
2018-02-27T10:43:36.576Z,3.33
2018-02-27T10:46:04.878Z,2.60
2018-02-27T10:48:33.213Z,3.55
2018-02-27T10:51:02.304Z,3.10
2018-02-27T10:53:31.391Z,3.55
2018-02-27T10:56:01.194Z,2.97
2018-02-27T10:58:29.512Z,3.40
2018-02-27T11:00:57.818Z,3.20
2018-02-27T11:03:26.279Z,2.50
2018-02-27T11:05:54.620Z,2.85
2018-02-27T11:08:22.923Z,3.30
2018-02-27T11:10:52.029Z,2.33
2018-02-27T11:13:20.434Z,2.60
2018-02-27T11:15:48.739Z,2.93
2018-02-27T11:18:17.389Z,2.50
2018-02-27T11:20:45.717Z,2.53
2018-02-27T11:23:14.067Z,3.30
2018-02-27T11:25:42.401Z,2.50
2018-02-27T11:28:10.717Z,2.92
2018-02-27T11:30:39.014Z,2.12
2018-02-27T11:33:07.346Z,2.60
2018-02-27T11:35:36.412Z,2.42
2018-02-27T11:38:04.711Z,2.45
2018-02-27T11:40:34.096Z,2.25
2018-02-27T11:43:02.432Z,1.42
2018-02-27T11:45:30.738Z,2.50
2018-02-27T11:47:59.084Z,2.25
2018-02-27T11:50:27.672Z,2.35
2018-02-27T11:52:56.015Z,2.33
2018-02-27T11:55:25.124Z,2.45
2018-02-27T11:57:53.460Z,2.10
2018-02-27T12:00:21.766Z,1.92
2018-02-27T12:02:51.147Z,2.00
2018-02-27T12:05:20.231Z,1.62
2018-02-27T12:07:48.532Z,1.52
2018-02-27T12:10:17.627Z,1.90
2018-02-27T12:12:46.724Z,1.83
2018-02-27T12:15:15.815Z,1.55
2018-02-27T12:17:44.905Z,1.55
2018-02-27T12:20:13.271Z,1.35
2018-02-27T12:22:41.628Z,1.60
2018-02-27T12:25:11.060Z,1.60
2018-02-27T12:27:39.396Z,1.67
2018-02-27T12:30:07.908Z,1.30
2018-02-27T12:32:36.238Z,1.20
2018-02-27T12:35:04.541Z,1.70
2018-02-27T12:37:32.852Z,1.20
2018-02-27T12:40:01.209Z,1.80
2018-02-27T12:42:30.374Z,2.17
2018-02-27T12:44:58.693Z,2.03
2018-02-27T12:47:27.317Z,2.00
2018-02-27T12:49:56.437Z,1.93
2018-02-27T12:52:24.768Z,1.50
2018-02-27T12:54:53.102Z,2.43
2018-02-27T12:57:21.431Z,1.80
2018-02-27T12:59:50.530Z,2.03
2018-02-27T13:02:19.654Z,2.50
2018-02-27T13:04:47.973Z,2.73
2018-02-27T13:07:16.277Z,3.00
2018-02-27T13:09:44.980Z,1.93
2018-02-27T13:12:13.343Z,1.97
2018-02-27T13:14:41.645Z,2.30
2018-02-27T13:17:10.769Z,1.83
2018-02-27T13:19:39.065Z,2.10
2018-02-27T13:22:07.400Z,2.47
2018-02-27T13:24:35.749Z,2.47
2018-02-27T13:27:04.099Z,2.53
2018-02-27T13:29:32.430Z,2.55
2018-02-27T13:32:01.249Z,2.42
2018-02-27T13:34:29.556Z,2.15
2018-02-27T13:36:57.894Z,2.25
2018-02-27T13:39:26.233Z,2.37
2018-02-27T13:41:54.573Z,2.03
2018-02-27T13:44:22.883Z,2.30
2018-02-27T13:46:51.206Z,1.70
2018-02-27T13:49:24.844Z,2.20
2018-02-27T13:51:47.865Z,3.30
2018-02-27T13:54:16.613Z,2.80
2018-02-27T13:56:44.928Z,1.98
2018-02-27T13:59:13.229Z,2.22
2018-02-27T14:01:41.572Z,1.90
2018-02-27T14:04:09.918Z,2.30
2018-02-27T14:06:38.241Z,1.70
2018-02-27T14:09:06.548Z,2.20
2018-02-27T14:11:34.856Z,1.90
2018-02-27T14:14:03.189Z,2.40
2018-02-27T14:16:31.933Z,2.80
2018-02-27T14:19:00.236Z,1.80
2018-02-27T14:21:28.706Z,2.00
2018-02-27T14:23:57.043Z,1.90
2018-02-27T14:26:25.442Z,2.10
2018-02-27T14:28:53.720Z,1.70
2018-02-27T14:31:22.089Z,1.52
2018-02-27T14:33:50.425Z,2.25
2018-02-27T14:36:18.713Z,1.92
2018-02-27T14:38:47.435Z,2.03
2018-02-27T14:41:15.767Z,2.30
2018-02-27T14:43:44.090Z,3.05
2018-02-27T14:46:12.455Z,3.10
2018-02-27T14:48:40.803Z,2.47
2018-02-27T14:51:09.151Z,2.50
2018-02-27T14:53:38.254Z,1.90
2018-02-27T14:56:06.580Z,2.20
2018-02-27T14:58:34.862Z,1.52
2018-02-27T15:01:03.593Z,1.90
2018-02-27T15:03:32.677Z,1.80
2018-02-27T15:06:01.004Z,2.15
2018-02-27T15:08:29.350Z,2.08
2018-02-27T15:10:57.665Z,2.60
2018-02-27T15:13:26.008Z,2.37
2018-02-27T15:15:54.361Z,2.22
2018-02-27T15:18:23.457Z,2.67
2018-02-27T15:20:51.781Z,2.75
2018-02-27T15:23:20.206Z,2.22
2018-02-27T15:25:49.322Z,2.60
2018-02-27T15:28:18.412Z,2.63
2018-02-27T15:30:47.542Z,2.43
2018-02-27T15:33:15.841Z,2.07
2018-02-27T15:35:44.186Z,3.20
2018-02-27T15:38:12.551Z,2.50
2018-02-27T15:40:41.607Z,2.70
2018-02-27T15:43:09.921Z,2.60
2018-02-27T15:45:39.514Z,2.90
2018-02-27T15:48:07.896Z,2.60
2018-02-27T15:50:36.206Z,2.80
2018-02-27T15:53:04.554Z,2.83
2018-02-27T15:55:32.867Z,3.50
2018-02-27T15:58:01.178Z,3.72
2018-02-27T16:00:29.535Z,2.60
2018-02-27T16:02:57.845Z,2.03
2018-02-27T16:05:26.135Z,1.92
2018-02-27T16:07:54.794Z,2.45
2018-02-27T16:10:23.092Z,9.52
2018-02-27T16:12:51.400Z,1.85
2018-02-27T16:15:19.744Z,2.00
2018-02-27T16:17:48.064Z,2.80
2018-02-27T16:20:17.193Z,2.50
2018-02-27T16:22:45.528Z,2.20
2018-02-27T16:25:14.591Z,2.67
2018-02-27T16:27:42.918Z,2.55
2018-02-27T16:30:11.508Z,3.05
2018-02-27T16:32:39.794Z,2.50
2018-02-27T16:35:08.106Z,2.62
2018-02-27T16:37:36.475Z,3.00
2018-02-27T16:40:04.781Z,3.72
2018-02-27T16:42:33.112Z,3.20
2018-02-27T16:45:01.461Z,3.53
2018-02-27T16:47:29.792Z,4.95
2018-02-27T16:49:58.120Z,7.15
2018-02-27T16:52:26.599Z,6.50
2018-02-27T16:54:55.668Z,8.30
2018-02-27T16:57:23.973Z,7.65
2018-02-27T16:59:52.317Z,9.68
2018-02-27T17:02:20.633Z,9.50
2018-02-27T17:04:49.735Z,9.95
2018-02-27T17:07:18.102Z,9.48
2018-02-27T17:09:47.205Z,9.95
2018-02-27T17:12:16.359Z,10.27
2018-02-27T17:14:45.105Z,9.45
2018-02-27T17:17:13.431Z,9.65
2018-02-27T17:22:16.342Z,8.95
2018-02-27T17:24:44.697Z,10.38
2018-02-27T17:27:13.168Z,10.05
2018-02-27T17:29:41.522Z,9.85
2018-02-27T17:32:09.841Z,10.40
2018-02-27T17:34:38.158Z,11.65
2018-02-27T17:37:07.465Z,11.18
2018-02-27T17:39:36.565Z,10.25
2018-02-27T17:42:05.681Z,9.75
2018-02-27T17:44:34.022Z,9.35
2018-02-27T17:47:02.357Z,11.45
2018-02-27T17:49:30.680Z,11.45
2018-02-27T17:51:59.818Z,10.25
2018-02-27T17:54:28.146Z,9.77
2018-02-27T17:56:56.459Z,10.73
2018-02-27T17:59:24.945Z,10.82
2018-02-27T18:01:53.263Z,11.20
2018-02-27T18:04:21.608Z,10.60
2018-02-27T18:06:50.034Z,11.65
2018-02-27T18:09:18.375Z,10.63
2018-02-27T18:11:46.698Z,11.32
2018-02-27T18:14:15.039Z,11.23
2018-02-27T18:16:43.402Z,10.82
2018-02-27T18:19:11.730Z,11.52
2018-02-27T18:21:40.445Z,10.82
2018-02-27T18:24:09.643Z,11.85
2018-02-27T18:26:38.755Z,11.85
2018-02-27T18:29:07.118Z,11.80
2018-02-27T18:31:35.497Z,11.00
2018-02-27T18:34:03.809Z,11.55
2018-02-27T18:36:32.157Z,12.40
2018-02-27T18:39:00.481Z,11.82
2018-02-27T18:41:28.821Z,11.95
2018-02-27T18:43:57.633Z,12.90
2018-02-27T18:46:25.781Z,12.30
2018-02-27T18:48:55.006Z,12.60
2018-02-27T18:51:23.339Z,13.90
2018-02-27T18:53:51.660Z,12.80
2018-02-27T18:56:20.014Z,14.05
2018-02-27T18:58:49.121Z,14.85
2018-02-27T19:01:17.462Z,14.18
2018-02-27T19:03:46.582Z,13.45
2018-02-27T19:06:15.983Z,14.52
2018-02-27T19:08:44.309Z,14.68
2018-02-27T19:11:13.382Z,13.70
2018-02-27T19:13:41.946Z,13.05
2018-02-27T19:16:11.040Z,14.02
2018-02-27T19:18:40.128Z,11.93
2018-02-27T19:21:09.267Z,12.20
2018-02-27T19:23:37.607Z,12.00
2018-02-27T19:26:05.945Z,10.70
2018-02-27T19:28:34.757Z,12.48
2018-02-27T19:31:03.084Z,11.05
2018-02-27T19:33:31.452Z,12.73
2018-02-27T19:35:59.806Z,12.73
2018-02-27T19:38:28.901Z,11.32
2018-02-27T19:40:57.248Z,11.50
2018-02-27T19:43:25.609Z,11.55
2018-02-27T19:45:53.937Z,11.35
2018-02-27T19:48:22.294Z,9.93
2018-02-27T19:50:50.709Z,9.65
2018-02-27T19:53:19.811Z,9.85
2018-02-27T19:55:48.194Z,9.38
2018-02-27T19:58:16.835Z,9.00
2018-02-27T20:00:45.188Z,9.02
2018-02-27T20:03:13.512Z,9.15
2018-02-27T20:05:42.653Z,9.38
2018-02-27T20:08:10.983Z,7.20
2018-02-27T20:10:40.113Z,9.55
2018-02-27T20:13:08.609Z,8.65
2018-02-27T20:15:36.954Z,8.00
2018-02-27T20:18:12.551Z,9.30
2018-02-27T20:20:40.880Z,9.25
2018-02-27T20:23:14.646Z,8.63
2018-02-27T20:25:43.005Z,10.07
2018-02-27T20:31:13.403Z,9.63
2018-02-27T20:33:42.585Z,9.63
2018-02-27T20:36:10.929Z,8.85
2018-02-27T20:38:44.852Z,9.52
2018-02-27T20:41:13.207Z,9.13
2018-02-27T20:43:41.528Z,8.63
2018-02-27T20:46:09.933Z,9.10
2018-02-27T20:48:38.296Z,9.55
2018-02-27T20:51:06.634Z,8.85
2018-02-27T20:53:35.009Z,8.80
2018-02-27T20:56:03.357Z,9.25
2018-02-27T20:58:32.429Z,9.48
2018-02-27T21:01:00.786Z,8.98
2018-02-27T21:03:29.161Z,8.27
2018-02-27T21:05:57.521Z,8.88
2018-02-27T21:08:25.999Z,8.85
2018-02-27T21:10:54.345Z,6.45
2018-02-27T21:13:22.680Z,9.18
2018-02-27T21:15:51.033Z,9.15
2018-02-27T21:18:19.377Z,8.02
2018-02-27T21:20:47.731Z,8.50
2018-02-27T21:23:16.078Z,7.40
2018-02-27T21:25:44.392Z,8.02
2018-02-27T21:28:12.733Z,8.05
2018-02-27T21:30:41.294Z,7.50
2018-02-27T21:33:10.381Z,7.72
2018-02-27T21:35:39.508Z,8.63
2018-02-27T21:38:07.900Z,7.62
2018-02-27T21:40:36.258Z,6.90
2018-02-27T21:43:04.585Z,7.57
2018-02-27T21:45:32.958Z,7.53
2018-02-27T21:48:01.349Z,7.60
2018-02-27T21:50:29.626Z,7.30
2018-02-27T21:52:58.058Z,6.50
2018-02-27T21:55:26.386Z,7.05
2018-02-27T21:57:55.480Z,5.80
2018-02-27T22:00:23.845Z,6.18
2018-02-27T22:02:52.193Z,6.62
2018-02-27T22:05:20.554Z,6.03
2018-02-27T22:07:49.216Z,6.68
2018-02-27T22:10:18.308Z,6.05
2018-02-27T22:12:46.649Z,5.43
2018-02-27T22:15:15.152Z,6.00
2018-02-27T22:17:43.487Z,5.15
2018-02-27T22:20:11.785Z,5.68
2018-02-27T22:22:40.146Z,4.93
2018-02-27T22:25:08.479Z,5.35
2018-02-27T22:27:36.803Z,5.25
2018-02-27T22:30:05.177Z,5.12
2018-02-27T22:32:33.500Z,5.00
2018-02-27T22:35:01.846Z,5.30
2018-02-27T22:37:30.474Z,4.32
2018-02-27T22:39:58.829Z,5.07
2018-02-27T22:42:27.165Z,3.90
2018-02-27T22:44:55.497Z,4.10
2018-02-27T22:47:23.801Z,4.40
2018-02-27T22:49:52.883Z,4.53
2018-02-27T22:52:21.260Z,3.65
2018-02-27T22:54:49.588Z,3.75
2018-02-27T22:57:17.901Z,3.28
2018-02-27T22:59:46.515Z,3.87
2018-02-27T23:02:15.586Z,3.78
2018-02-27T23:04:43.905Z,4.03
2018-02-27T23:07:12.284Z,3.10
2018-02-27T23:09:40.585Z,4.20
2018-02-27T23:12:08.913Z,3.62
2018-02-27T23:14:37.240Z,3.67
2018-02-27T23:17:05.723Z,3.40
2018-02-27T23:19:34.031Z,3.40
2018-02-27T23:22:02.661Z,3.62
2018-02-27T23:24:44.148Z,3.30
2018-02-27T23:27:14.564Z,3.08
2018-02-27T23:29:44.854Z,3.53
2018-02-27T23:32:14.235Z,3.50
2018-02-27T23:34:48.462Z,3.75
2018-02-27T23:37:16.792Z,3.47
2018-02-27T23:39:45.870Z,3.60
2018-02-27T23:42:14.439Z,4.25
2018-02-27T23:44:42.779Z,3.97
2018-02-27T23:47:11.078Z,3.03
2018-02-27T23:49:39.394Z,4.15
2018-02-27T23:52:08.466Z,3.53
2018-02-27T23:54:36.753Z,3.58
2018-02-27T23:57:05.101Z,2.95
2018-02-27T23:59:33.448Z,3.08
